createdAt,value
2022-10-06T00:01:18.773Z,79.55
2022-10-06T00:03:47.560Z,79.48
2022-10-06T00:06:17.667Z,79.29
2022-10-06T00:08:46.766Z,79.23
2022-10-06T00:11:17.539Z,79.15
2022-10-06T00:13:46.224Z,79.03
2022-10-06T00:16:19.209Z,78.90
2022-10-06T00:18:47.261Z,78.85
2022-10-06T00:21:15.173Z,78.69
2022-10-06T00:23:43.257Z,78.52
2022-10-06T00:26:17.089Z,78.40
2022-10-06T00:28:49.382Z,78.30
2022-10-06T00:31:19.878Z,78.23
2022-10-06T00:33:49.935Z,78.26
2022-10-06T00:36:18.034Z,78.18
2022-10-06T00:38:46.386Z,78.18
2022-10-06T00:41:16.761Z,78.21
2022-10-06T00:43:47.688Z,78.18
2022-10-06T00:46:39.069Z,78.17
2022-10-06T00:49:15.125Z,78.18
2022-10-06T00:51:48.147Z,78.20
2022-10-06T00:54:17.488Z,78.21
2022-10-06T00:56:45.627Z,78.21
2022-10-06T00:59:16.670Z,78.28
2022-10-06T01:01:54.226Z,78.27
2022-10-06T01:04:24.566Z,78.33
2022-10-06T01:06:55.407Z,78.34
2022-10-06T01:09:24.218Z,78.43
2022-10-06T01:11:56.388Z,78.42
2022-10-06T01:14:25.887Z,78.51
2022-10-06T01:16:59.483Z,78.55
2022-10-06T01:19:44.833Z,78.60
2022-10-06T01:22:15.964Z,78.73
2022-10-06T01:24:47.794Z,78.72
2022-10-06T01:27:16.909Z,78.77
2022-10-06T01:29:45.292Z,78.83
2022-10-06T01:32:13.422Z,78.90
2022-10-06T01:34:41.585Z,78.95
2022-10-06T01:37:09.751Z,79.05
2022-10-06T01:39:37.732Z,79.08
2022-10-06T01:42:06.114Z,79.17
2022-10-06T01:44:34.269Z,79.25
2022-10-06T01:47:06.040Z,79.32
2022-10-06T01:49:34.629Z,79.37
2022-10-06T01:52:04.961Z,79.32
2022-10-06T01:54:33.548Z,79.34
2022-10-06T01:57:02.186Z,79.42
2022-10-06T01:59:30.092Z,79.51
2022-10-06T02:01:58.096Z,79.59
2022-10-06T02:04:26.634Z,79.60
2022-10-06T02:06:55.728Z,79.68
2022-10-06T02:09:23.961Z,79.74
2022-10-06T02:11:53.222Z,79.69
2022-10-06T02:14:21.268Z,79.71
2022-10-06T02:16:49.541Z,79.72
2022-10-06T02:19:17.715Z,79.76
2022-10-06T02:21:45.539Z,79.78
2022-10-06T02:24:13.879Z,79.94
2022-10-06T02:26:41.897Z,80.02
2022-10-06T02:29:09.902Z,80.07
2022-10-06T02:31:38.205Z,80.05
2022-10-06T02:34:06.332Z,80.11
2022-10-06T02:36:34.555Z,80.05
2022-10-06T02:39:03.395Z,80.08
2022-10-06T02:41:33.001Z,80.06
2022-10-06T02:44:01.111Z,80.03
2022-10-06T02:46:29.219Z,80.05
2022-10-06T02:48:57.716Z,80.01
2022-10-06T02:51:25.665Z,79.95
2022-10-06T02:53:54.443Z,79.87
2022-10-06T02:56:24.731Z,79.81
2022-10-06T02:58:54.057Z,79.68
2022-10-06T03:01:28.317Z,79.68
2022-10-06T03:03:59.134Z,79.67
2022-10-06T03:06:30.047Z,79.68
2022-10-06T03:09:09.557Z,79.69
2022-10-06T03:11:41.596Z,79.70
2022-10-06T03:14:10.707Z,79.68
2022-10-06T03:16:41.667Z,79.70
2022-10-06T03:19:17.624Z,79.78
2022-10-06T03:21:46.451Z,79.80
2022-10-06T03:24:15.290Z,79.83
2022-10-06T03:26:46.714Z,79.86
2022-10-06T03:29:16.253Z,79.89
2022-10-06T03:31:47.798Z,79.89
2022-10-06T03:34:15.709Z,80.06
2022-10-06T03:36:44.732Z,80.11
2022-10-06T03:39:12.960Z,80.11
2022-10-06T03:41:41.169Z,80.17
2022-10-06T03:44:10.157Z,80.20
2022-10-06T03:46:43.786Z,80.21
2022-10-06T03:49:11.858Z,80.34
2022-10-06T03:51:42.782Z,80.38
2022-10-06T03:54:17.782Z,80.41
2022-10-06T03:56:46.712Z,80.46
2022-10-06T03:59:19.761Z,80.49
2022-10-06T04:01:49.001Z,80.49
2022-10-06T04:04:32.255Z,80.51
2022-10-06T04:07:04.116Z,80.54
2022-10-06T04:09:32.241Z,80.60
2022-10-06T04:12:01.360Z,80.71
2022-10-06T04:14:29.688Z,80.77
2022-10-06T04:16:57.928Z,80.77
2022-10-06T04:19:31.265Z,80.78
2022-10-06T04:22:00.482Z,80.82
2022-10-06T04:24:28.282Z,80.87
2022-10-06T04:27:16.848Z,80.94
2022-10-06T04:29:48.943Z,80.96
2022-10-06T04:32:19.689Z,81.03
2022-10-06T04:34:47.634Z,81.12
2022-10-06T04:37:15.920Z,81.25
2022-10-06T04:39:45.807Z,81.34
2022-10-06T04:42:13.980Z,81.35
2022-10-06T04:44:41.910Z,81.31
2022-10-06T04:47:10.110Z,81.36
2022-10-06T04:49:38.073Z,81.43
2022-10-06T04:52:06.373Z,81.48
2022-10-06T04:54:36.922Z,81.61
2022-10-06T04:57:06.354Z,81.67
2022-10-06T04:59:53.223Z,81.72
2022-10-06T05:02:21.536Z,81.71
2022-10-06T05:04:53.015Z,81.73
2022-10-06T05:07:24.044Z,81.79
2022-10-06T05:09:52.029Z,81.82
2022-10-06T05:12:20.207Z,81.80
2022-10-06T05:14:48.494Z,81.75
2022-10-06T05:17:16.624Z,81.84
2022-10-06T05:19:44.957Z,81.94
2022-10-06T05:22:13.827Z,82.02
2022-10-06T05:24:41.879Z,81.97
2022-10-06T05:27:09.768Z,81.89
2022-10-06T05:29:38.306Z,81.98
2022-10-06T05:32:08.873Z,81.98
2022-10-06T05:34:37.425Z,82.07
2022-10-06T05:37:05.597Z,82.18
2022-10-06T05:39:33.735Z,82.13
2022-10-06T05:42:01.717Z,82.16
2022-10-06T05:44:30.617Z,82.26
2022-10-06T05:47:01.295Z,82.25
2022-10-06T05:49:29.493Z,82.00
2022-10-06T05:52:00.860Z,82.01
2022-10-06T05:54:31.865Z,82.01
2022-10-06T05:57:00.103Z,81.79
2022-10-06T05:59:28.818Z,81.80
2022-10-06T06:01:57.319Z,81.69
2022-10-06T06:04:44.223Z,81.69
2022-10-06T06:07:12.139Z,81.55
2022-10-06T06:09:41.864Z,81.36
2022-10-06T06:12:10.093Z,81.31
2022-10-06T06:15:03.190Z,81.16
2022-10-06T06:17:36.572Z,81.07
2022-10-06T06:20:06.794Z,80.76
2022-10-06T06:22:35.937Z,80.63
2022-10-06T06:25:08.029Z,80.63
2022-10-06T06:27:35.905Z,80.54
2022-10-06T06:30:06.338Z,80.55
2022-10-06T06:32:35.471Z,80.35
2022-10-06T06:35:04.050Z,80.17
2022-10-06T06:37:33.805Z,80.04
2022-10-06T06:40:03.096Z,79.84
2022-10-06T06:42:33.809Z,79.79
2022-10-06T06:45:24.395Z,79.75
2022-10-06T06:48:16.360Z,79.72
2022-10-06T06:50:45.992Z,79.82
2022-10-06T06:53:16.208Z,79.72
2022-10-06T06:55:52.733Z,79.76
2022-10-06T06:58:22.759Z,79.74
2022-10-06T07:00:51.530Z,79.82
2022-10-06T07:03:45.259Z,79.89
2022-10-06T07:06:13.217Z,79.89
2022-10-06T07:08:47.177Z,79.94
2022-10-06T07:11:17.373Z,79.93
2022-10-06T07:13:47.014Z,79.92
2022-10-06T07:16:35.949Z,79.90
2022-10-06T07:19:25.085Z,79.90
2022-10-06T07:22:19.051Z,79.90
2022-10-06T07:25:06.656Z,80.06
2022-10-06T07:27:44.863Z,80.07
2022-10-06T07:30:19.515Z,79.96
2022-10-06T07:32:52.173Z,80.03
2022-10-06T07:35:23.051Z,79.94
2022-10-06T07:37:55.604Z,79.89
2022-10-06T07:40:25.547Z,79.88
2022-10-06T07:42:53.573Z,79.75
2022-10-06T07:45:39.158Z,79.70
2022-10-06T07:48:11.440Z,79.84
2022-10-06T07:50:39.911Z,79.97
2022-10-06T07:53:11.521Z,79.91
2022-10-06T07:55:46.816Z,79.91
2022-10-06T07:58:24.129Z,79.84
2022-10-06T08:00:55.493Z,79.91
2022-10-06T08:03:25.515Z,79.95
2022-10-06T08:06:02.255Z,79.93
2022-10-06T08:08:32.941Z,79.80
2022-10-06T08:11:01.914Z,79.86
2022-10-06T08:13:32.823Z,79.73
2022-10-06T08:16:12.561Z,79.76
2022-10-06T08:18:46.491Z,79.66
2022-10-06T08:21:21.241Z,79.64
2022-10-06T08:23:51.244Z,79.58
2022-10-06T08:26:21.219Z,79.31
2022-10-06T08:28:51.792Z,79.17
2022-10-06T08:31:22.331Z,79.06
2022-10-06T08:33:55.259Z,78.64
2022-10-06T08:36:30.976Z,78.37
2022-10-06T08:39:01.324Z,78.27
2022-10-06T08:41:43.333Z,78.12
2022-10-06T08:44:18.730Z,77.96
2022-10-06T08:46:56.031Z,77.52
2022-10-06T08:49:27.835Z,76.92
2022-10-06T08:52:17.939Z,76.76
2022-10-06T08:55:30.174Z,76.58
2022-10-06T08:58:03.729Z,76.45
2022-10-06T09:00:33.415Z,75.86
2022-10-06T09:03:02.511Z,75.26
2022-10-06T09:05:34.880Z,75.52
2022-10-06T09:08:34.442Z,75.40
2022-10-06T09:11:21.395Z,75.59
2022-10-06T09:14:00.043Z,75.27
2022-10-06T09:16:34.087Z,75.12
2022-10-06T09:19:10.312Z,75.22
2022-10-06T09:21:47.967Z,74.73
2022-10-06T09:24:33.993Z,74.65
2022-10-06T09:27:16.829Z,74.15
2022-10-06T09:29:48.791Z,74.41
2022-10-06T09:32:19.266Z,74.65
2022-10-06T09:34:51.988Z,74.27
2022-10-06T09:37:19.986Z,73.89
2022-10-06T09:39:51.000Z,73.62
2022-10-06T09:42:23.311Z,72.99
2022-10-06T09:44:58.575Z,72.32
2022-10-06T09:47:32.528Z,72.28
2022-10-06T09:50:12.500Z,72.41
2022-10-06T09:52:42.680Z,72.36
2022-10-06T09:55:13.311Z,71.90
2022-10-06T09:57:53.688Z,71.71
2022-10-06T10:00:32.484Z,71.96
2022-10-06T10:03:09.469Z,72.47
2022-10-06T10:05:39.707Z,72.27
2022-10-06T10:08:13.896Z,71.74
2022-10-06T10:10:41.945Z,72.15
2022-10-06T10:13:24.631Z,72.33
2022-10-06T10:16:03.562Z,72.37
2022-10-06T10:18:32.343Z,71.66
2022-10-06T10:21:08.503Z,71.48
2022-10-06T10:23:40.834Z,71.29
2022-10-06T10:26:32.229Z,71.22
2022-10-06T10:29:14.883Z,71.71
2022-10-06T10:32:09.911Z,71.16
2022-10-06T10:34:57.046Z,71.32
2022-10-06T10:37:39.842Z,70.58
2022-10-06T10:40:08.169Z,70.48
2022-10-06T10:42:48.072Z,70.77
2022-10-06T10:45:27.576Z,70.98
2022-10-06T10:47:56.940Z,70.91
2022-10-06T10:50:32.512Z,71.19
2022-10-06T10:55:48.963Z,71.47
2022-10-06T10:58:28.163Z,71.74
2022-10-06T11:01:04.738Z,71.38
2022-10-06T11:03:33.504Z,71.24
2022-10-06T11:06:21.093Z,70.90
2022-10-06T11:08:57.819Z,70.86
2022-10-06T11:11:52.329Z,70.67
2022-10-06T11:14:45.885Z,70.64
2022-10-06T11:17:30.682Z,70.94
2022-10-06T11:20:37.764Z,70.29
2022-10-06T11:23:24.515Z,70.31
2022-10-06T11:25:53.339Z,70.33
2022-10-06T11:28:34.103Z,70.58
2022-10-06T11:31:20.199Z,70.47
2022-10-06T11:33:53.904Z,70.46
2022-10-06T11:36:52.874Z,70.43
2022-10-06T11:39:23.426Z,69.92
2022-10-06T11:42:00.454Z,69.47
2022-10-06T11:44:53.778Z,69.52
2022-10-06T11:47:35.501Z,69.98
2022-10-06T11:50:34.019Z,69.79
2022-10-06T11:53:02.190Z,69.63
2022-10-06T11:55:31.340Z,68.98
2022-10-06T11:58:23.365Z,69.47
2022-10-06T12:00:55.401Z,68.64
2022-10-06T12:03:29.666Z,68.77
2022-10-06T12:05:57.840Z,68.86
2022-10-06T12:08:42.430Z,68.36
2022-10-06T12:11:52.974Z,68.27
2022-10-06T12:16:32.374Z,68.01
2022-10-06T12:17:37.399Z,68.47
2022-10-06T12:20:17.749Z,68.20
2022-10-06T12:23:05.001Z,67.16
2022-10-06T12:25:37.023Z,66.37
2022-10-06T12:28:24.316Z,65.97
2022-10-06T12:31:27.802Z,66.09
2022-10-06T12:33:56.424Z,66.49
2022-10-06T12:36:32.217Z,66.02
2022-10-06T12:39:24.076Z,66.14
2022-10-06T12:41:59.798Z,66.30
2022-10-06T12:44:39.657Z,66.21
2022-10-06T12:47:17.464Z,65.37
2022-10-06T12:49:54.940Z,65.84
2022-10-06T12:52:48.770Z,66.06
2022-10-06T12:55:43.827Z,65.87
2022-10-06T12:58:28.922Z,65.86
2022-10-06T13:01:03.015Z,66.12
2022-10-06T13:03:31.464Z,66.43
2022-10-06T13:06:03.512Z,66.75
2022-10-06T13:08:33.869Z,67.28
2022-10-06T13:11:26.550Z,67.07
2022-10-06T13:13:56.735Z,66.40
2022-10-06T13:16:32.570Z,63.76
2022-10-06T13:19:01.424Z,63.25
2022-10-06T13:21:30.717Z,63.26
2022-10-06T13:23:59.472Z,63.37
2022-10-06T13:26:32.484Z,62.90
2022-10-06T13:29:00.835Z,62.48
2022-10-06T13:31:31.616Z,60.70
2022-10-06T13:34:15.388Z,60.85
2022-10-06T13:36:47.848Z,60.59
2022-10-06T13:39:18.917Z,59.06
2022-10-06T13:41:51.262Z,59.76
2022-10-06T13:44:32.183Z,59.09
2022-10-06T13:47:29.750Z,59.06
2022-10-06T13:50:18.778Z,59.74
2022-10-06T13:52:49.034Z,60.49
2022-10-06T13:55:29.134Z,60.30
2022-10-06T13:57:57.066Z,60.09
2022-10-06T14:00:56.120Z,60.39
2022-10-06T14:06:11.060Z,59.60
2022-10-06T14:08:39.328Z,59.11
2022-10-06T14:11:08.748Z,58.11
2022-10-06T14:13:51.351Z,57.65
2022-10-06T14:16:25.234Z,58.51
2022-10-06T14:21:41.831Z,57.82
2022-10-06T14:24:16.423Z,57.12
2022-10-06T14:26:45.919Z,57.44
2022-10-06T14:29:14.355Z,57.31
2022-10-06T14:31:43.777Z,56.20
2022-10-06T14:34:17.231Z,56.35
2022-10-06T14:36:51.543Z,54.86
2022-10-06T14:39:20.085Z,51.06
2022-10-06T14:41:48.263Z,48.82
2022-10-06T14:44:16.624Z,47.01
2022-10-06T14:46:48.347Z,44.72
2022-10-06T14:49:17.700Z,42.67
2022-10-06T14:51:46.083Z,40.07
2022-10-06T14:54:14.350Z,38.96
2022-10-06T14:56:45.156Z,38.58
2022-10-06T14:59:17.433Z,37.49
2022-10-06T15:01:46.647Z,36.66
2022-10-06T15:04:19.532Z,35.83
2022-10-06T15:07:08.134Z,36.26
2022-10-06T15:09:36.870Z,36.59
2022-10-06T15:12:04.979Z,38.28
2022-10-06T15:14:35.250Z,39.71
2022-10-06T15:17:03.568Z,42.03
2022-10-06T15:19:31.743Z,42.91
2022-10-06T15:22:00.082Z,43.80
2022-10-06T15:24:28.158Z,44.82
2022-10-06T15:27:14.917Z,46.20
2022-10-06T15:29:42.958Z,47.04
2022-10-06T15:32:11.145Z,48.33
2022-10-06T15:34:39.224Z,49.41
2022-10-06T15:37:07.392Z,50.24
2022-10-06T15:39:37.669Z,50.66
2022-10-06T15:42:06.454Z,51.25
2022-10-06T15:44:35.396Z,51.82
2022-10-06T15:47:05.733Z,52.18
2022-10-06T15:49:38.474Z,52.93
2022-10-06T15:52:08.354Z,53.52
2022-10-06T15:54:39.848Z,54.33
2022-10-06T15:57:10.307Z,54.84
2022-10-06T15:59:40.212Z,55.41
2022-10-06T16:02:14.981Z,55.71
2022-10-06T16:04:44.290Z,56.27
2022-10-06T16:07:15.527Z,56.49
2022-10-06T16:09:46.475Z,56.99
2022-10-06T16:12:17.794Z,57.34
2022-10-06T16:14:46.678Z,57.76
2022-10-06T16:17:15.434Z,58.20
2022-10-06T16:19:44.851Z,58.42
2022-10-06T16:22:17.783Z,58.99
2022-10-06T16:24:48.574Z,59.21
2022-10-06T16:27:16.868Z,59.40
2022-10-06T16:29:45.118Z,59.76
2022-10-06T16:32:13.271Z,60.27
2022-10-06T16:34:41.154Z,60.96
2022-10-06T16:37:10.229Z,61.27
2022-10-06T16:39:40.487Z,62.71
2022-10-06T16:42:08.519Z,62.73
2022-10-06T16:44:39.950Z,63.59
2022-10-06T16:47:08.243Z,63.87
2022-10-06T16:49:36.378Z,63.51
2022-10-06T16:52:06.561Z,64.13
2022-10-06T16:54:34.591Z,64.50
2022-10-06T16:57:06.908Z,65.06
2022-10-06T16:59:37.089Z,64.74
2022-10-06T17:02:05.385Z,65.17
2022-10-06T17:04:33.473Z,65.07
2022-10-06T17:07:02.020Z,64.99
2022-10-06T17:09:33.369Z,65.27
2022-10-06T17:12:04.846Z,66.00
2022-10-06T17:14:35.247Z,65.66
2022-10-06T17:17:03.893Z,65.90
2022-10-06T17:19:32.540Z,66.18
2022-10-06T17:22:00.591Z,66.59
2022-10-06T17:24:29.775Z,66.47
2022-10-06T17:26:58.521Z,66.65
2022-10-06T17:29:27.342Z,67.35
2022-10-06T17:32:02.857Z,67.78
2022-10-06T17:34:32.665Z,68.19
2022-10-06T17:37:04.922Z,68.03
2022-10-06T17:39:37.982Z,69.15
2022-10-06T17:42:06.204Z,69.28
2022-10-06T17:44:34.087Z,69.42
2022-10-06T17:47:02.311Z,69.36
2022-10-06T17:49:34.556Z,69.33
2022-10-06T17:52:04.846Z,69.74
2022-10-06T17:54:34.536Z,69.67
2022-10-06T17:57:05.822Z,70.12
2022-10-06T17:59:35.054Z,70.08
2022-10-06T18:02:06.447Z,70.00
2022-10-06T18:04:35.626Z,70.17
2022-10-06T18:07:04.219Z,70.38
2022-10-06T18:09:33.002Z,70.48
2022-10-06T18:12:02.715Z,71.42
2022-10-06T18:14:33.960Z,71.07
2022-10-06T18:17:04.062Z,71.04
2022-10-06T18:19:35.640Z,71.66
2022-10-06T18:22:16.490Z,71.09
2022-10-06T18:24:44.999Z,71.36
2022-10-06T18:27:16.348Z,71.77
2022-10-06T18:29:44.315Z,71.77
2022-10-06T18:33:40.692Z,71.86
2022-10-06T18:37:56.545Z,72.24
2022-10-06T18:40:24.709Z,72.03
2022-10-06T18:42:52.847Z,72.66
2022-10-06T18:45:39.991Z,72.62
2022-10-06T18:48:28.152Z,72.82
2022-10-06T18:51:03.428Z,72.27
2022-10-06T18:53:36.420Z,72.51
2022-10-06T18:56:07.193Z,73.03
2022-10-06T18:58:42.131Z,72.87
2022-10-06T19:01:11.142Z,73.31
2022-10-06T19:03:40.108Z,73.35
2022-10-06T19:06:08.630Z,73.75
2022-10-06T19:08:37.548Z,73.88
2022-10-06T19:11:25.777Z,73.93
2022-10-06T19:13:55.888Z,73.67
2022-10-06T19:16:24.314Z,73.73
2022-10-06T19:18:52.420Z,73.91
2022-10-06T19:21:21.184Z,74.24
2022-10-06T19:23:50.474Z,74.49
2022-10-06T19:26:22.826Z,74.44
2022-10-06T19:28:51.318Z,74.55
2022-10-06T19:31:20.280Z,74.87
2022-10-06T19:33:49.103Z,74.81
2022-10-06T19:36:18.780Z,74.91
2022-10-06T19:38:46.919Z,75.02
2022-10-06T19:41:33.613Z,74.91
2022-10-06T19:44:05.073Z,74.91
2022-10-06T19:46:33.265Z,74.83
2022-10-06T19:49:05.908Z,74.91
2022-10-06T19:51:35.340Z,75.10
2022-10-06T19:54:04.942Z,75.38
2022-10-06T19:56:33.525Z,75.56
2022-10-06T19:59:02.107Z,75.51
2022-10-06T20:01:31.369Z,76.16
2022-10-06T20:04:01.843Z,75.98
2022-10-06T20:06:30.778Z,75.95
2022-10-06T20:08:58.746Z,76.01
2022-10-06T20:11:26.582Z,76.31
2022-10-06T20:13:58.075Z,76.24
2022-10-06T20:16:28.875Z,76.24
2022-10-06T20:18:57.457Z,76.15
2022-10-06T20:21:31.392Z,76.12
2022-10-06T20:24:02.618Z,76.30
2022-10-06T20:26:33.458Z,76.65
2022-10-06T20:29:08.050Z,76.48
2022-10-06T20:31:42.758Z,76.24
2022-10-06T20:34:14.314Z,76.38
2022-10-06T20:36:42.954Z,76.06
2022-10-06T20:39:38.725Z,76.40
2022-10-06T20:42:10.755Z,76.49
2022-10-06T20:44:42.654Z,76.79
2022-10-06T20:47:12.227Z,76.62
2022-10-06T20:49:42.255Z,76.59
2022-10-06T20:52:14.504Z,76.70
2022-10-06T20:54:43.171Z,76.69
2022-10-06T20:57:11.310Z,76.93
2022-10-06T20:59:39.566Z,77.10
2022-10-06T21:02:07.703Z,76.91
2022-10-06T21:04:35.837Z,76.93
2022-10-06T21:07:07.592Z,77.08
2022-10-06T21:09:35.721Z,76.76
2022-10-06T21:12:04.849Z,76.67
2022-10-06T21:14:34.364Z,76.93
2022-10-06T21:17:02.611Z,77.23
2022-10-06T21:19:31.948Z,77.02
2022-10-06T21:21:59.944Z,77.32
2022-10-06T21:24:28.021Z,76.91
2022-10-06T21:26:56.177Z,76.86
2022-10-06T21:29:24.422Z,76.89
2022-10-06T21:31:52.803Z,76.87
2022-10-06T21:34:21.020Z,76.95
2022-10-06T21:36:49.032Z,76.83
2022-10-06T21:39:17.278Z,76.92
2022-10-06T21:41:45.715Z,77.08
2022-10-06T21:44:18.731Z,77.26
2022-10-06T21:46:50.138Z,77.32
2022-10-06T21:49:21.579Z,77.81
2022-10-06T21:51:52.533Z,78.05
2022-10-06T21:54:22.247Z,77.59
2022-10-06T21:56:51.285Z,77.53
2022-10-06T21:59:19.682Z,77.62
2022-10-06T22:01:50.320Z,78.08
2022-10-06T22:04:19.238Z,77.93
2022-10-06T22:06:50.349Z,77.62
2022-10-06T22:09:20.215Z,77.97
2022-10-06T22:11:49.681Z,78.10
2022-10-06T22:14:19.153Z,78.42
2022-10-06T22:16:48.920Z,78.30
2022-10-06T22:19:18.312Z,78.32
2022-10-06T22:21:48.834Z,78.41
2022-10-06T22:24:19.586Z,78.24
2022-10-06T22:26:49.448Z,78.52
2022-10-06T22:29:19.446Z,78.67
2022-10-06T22:31:48.643Z,78.48
2022-10-06T22:34:19.899Z,78.73
2022-10-06T22:36:48.621Z,79.05
2022-10-06T22:39:16.941Z,79.01
2022-10-06T22:41:45.644Z,78.65
2022-10-06T22:44:13.552Z,78.56
2022-10-06T22:46:41.681Z,78.73
2022-10-06T22:49:10.455Z,79.24
2022-10-06T22:51:38.450Z,79.11
2022-10-06T22:54:07.008Z,79.11
2022-10-06T22:56:35.219Z,79.00
2022-10-06T22:59:03.376Z,79.30
2022-10-06T23:01:31.599Z,79.13
2022-10-06T23:04:00.583Z,78.85
2022-10-06T23:06:31.388Z,78.64
2022-10-06T23:09:00.126Z,78.36
2022-10-06T23:11:29.067Z,78.53
2022-10-06T23:13:57.270Z,78.48
2022-10-06T23:16:25.854Z,78.33
2022-10-06T23:18:55.280Z,78.47
2022-10-06T23:21:27.905Z,78.65
2022-10-06T23:24:00.273Z,78.48
2022-10-06T23:26:29.277Z,78.32
2022-10-06T23:28:59.811Z,78.29
2022-10-06T23:31:29.415Z,78.27
2022-10-06T23:33:57.969Z,78.36
2022-10-06T23:36:26.188Z,78.26
2022-10-06T23:38:54.627Z,78.30
2022-10-06T23:41:22.699Z,78.24
2022-10-06T23:43:51.128Z,78.20
2022-10-06T23:46:19.215Z,78.24
2022-10-06T23:48:47.328Z,78.40
2022-10-06T23:51:16.166Z,78.32
2022-10-06T23:53:44.337Z,78.40
2022-10-06T23:56:14.063Z,78.17
2022-10-06T23:58:42.730Z,78.12
